Saskatoon John G. Diefenbaker International Airport
CYXE : now visible

Airfield :











YOU CAN JOIN US ON...

 
LOGIN :

Register | Disclaimer

   EN    FR    IT 

 









Legend :    VFR   Marginal VFR   IFR   Intensive IFR   Very Intensive IFR
Visi :
Ceiling :
>= 8 km
>= 3000ft
5 to 8 km
1000 to 3000 ft
1500m to 5 km
500 to 1000 ft
800 to 1500m
200 to 500 ft
< 800m
< 200 ft
Symbols :   Thunderstorms  Fog  Heavy snow  Heavy precipitations  Wind > 20 kt






- Airport Elevation : 1653 ft
- IATA code : YXE


CYXE - Saskatoon John G. Diefenbaker International

CURRENT METAR :
  • 282200Z 32017KT 1 1/2SM -SN DRSN OVC023 M08/M10 A2957 RMK SC8 SLP050

EXPIRED METARs :
  • 282109Z 32019KT 1 1/2SM -SN DRSN OVC022 M08/M10 A2955 RMK SC8 SLP043
  • 282100Z 32018G24KT 2SM -SN DRSN OVC020 M08/M10 A2955 RMK SC8 SLP042
  • 282035Z 32019KT 2SM -SN DRSN OVC018 M07/M10 A2954 RMK SC8 SLP039
  • 282000Z 33017G23KT 3SM -SN DRSN OVC019 M07/M10 A2953 RMK SC8 SLP034
  • 281954Z 32017G27KT 3SM -SN DRSN OVC019 M07/M10 A2953 RMK SC8 SLP034
  • 281900Z 33022KT 2SM -SN DRSN OVC016 M07/M10 A2952 RMK SC8 SLP030

TAF TAF CYXE
Valid from the 28 at 18:00 until the 29 at 18:00 UTC


281740Z 2818/2918 34020G30KT 6SM -SN OVC015
TEMPO 2818/2903 2SM -SN BLSN OVC008
PROB30 2818/2903 1SM -SN BLSN
FM290300 33015G25KT 6SM -SN OVC015
TEMPO 2903/2918 2SM -SN OVC008 RMK NXT FCST BY 290000Z
CZWG FIR / North America



MET'MAP, your aeronautical weather chart ! - Copyright ORBIFLY December 2007 - Disclaimer

ORBIFLY MET'MAP TEAM :

Programming & Development : Alexandra Zaïnal
Original concept : Baudouin d'Aumeries
Technical & hardware support : Manuel Goepfert
Assistance : Marc-Olivier Méhu




SOURCES & CREDITS :

   NOAA       Earth
Advisory